createdAt,value
2022-10-12T00:00:43.642Z,12.65
2022-10-12T00:03:13.239Z,12.73
2022-10-12T00:05:41.524Z,12.67
2022-10-12T00:08:09.710Z,12.60
2022-10-12T00:10:42.870Z,12.56
2022-10-12T00:13:11.521Z,12.53
2022-10-12T00:15:40.334Z,12.49
2022-10-12T00:18:08.945Z,12.48
2022-10-12T00:20:37.039Z,12.44
2022-10-12T00:23:05.180Z,12.38
2022-10-12T00:25:33.179Z,12.38
2022-10-12T00:28:02.630Z,12.34
2022-10-12T00:30:30.789Z,12.30
2022-10-12T00:32:58.819Z,12.29
2022-10-12T00:35:29.083Z,12.27
2022-10-12T00:37:57.582Z,12.27
2022-10-12T00:40:25.546Z,12.26
2022-10-12T00:42:53.568Z,12.23
2022-10-12T00:45:25.071Z,12.22
2022-10-12T00:47:56.978Z,12.19
2022-10-12T00:50:28.237Z,12.18
2022-10-12T00:53:01.371Z,12.14
2022-10-12T00:55:32.781Z,12.22
2022-10-12T00:58:02.276Z,12.21
2022-10-12T01:00:32.026Z,12.21
2022-10-12T01:03:00.543Z,12.20
2022-10-12T01:05:29.465Z,12.20
2022-10-12T01:07:59.737Z,12.18
2022-10-12T01:10:27.803Z,12.18
2022-10-12T01:12:56.041Z,12.16
2022-10-12T01:15:30.305Z,12.13
2022-10-12T01:18:06.898Z,12.12
2022-10-12T01:20:52.502Z,12.08
2022-10-12T01:23:44.107Z,12.05
2022-10-12T01:26:40.057Z,12.02
2022-10-12T01:29:22.026Z,12.02
2022-10-12T01:31:56.362Z,12.00
2022-10-12T01:34:32.037Z,11.98
2022-10-12T01:37:09.222Z,11.97
2022-10-12T01:39:44.836Z,11.97
2022-10-12T01:42:19.972Z,11.94
2022-10-12T01:44:48.018Z,11.94
2022-10-12T01:47:17.399Z,11.91
2022-10-12T01:49:45.421Z,11.90
2022-10-12T01:52:24.379Z,11.89
2022-10-12T01:55:11.707Z,11.85
2022-10-12T01:57:51.839Z,11.84
2022-10-12T02:00:20.608Z,11.84
2022-10-12T02:02:59.258Z,11.78
2022-10-12T02:05:36.183Z,11.74
2022-10-12T02:08:10.602Z,11.74
2022-10-12T02:10:42.335Z,11.73
2022-10-12T02:13:15.134Z,11.78
2022-10-12T02:15:44.865Z,11.79
2022-10-12T02:18:18.707Z,11.78
2022-10-12T02:20:48.521Z,11.78
2022-10-12T02:23:17.521Z,11.77
2022-10-12T02:25:47.345Z,11.75
2022-10-12T02:28:19.651Z,11.66
2022-10-12T02:30:53.873Z,11.63
2022-10-12T02:33:28.413Z,11.60
2022-10-12T02:36:01.861Z,11.58
2022-10-12T02:38:35.246Z,11.56
2022-10-12T02:41:06.845Z,11.68
2022-10-12T02:43:39.824Z,11.73
2022-10-12T02:46:10.521Z,11.75
2022-10-12T02:48:41.515Z,11.78
2022-10-12T02:51:12.152Z,11.79
2022-10-12T02:53:40.635Z,11.81
2022-10-12T02:56:13.165Z,11.77
2022-10-12T02:58:43.814Z,11.75
2022-10-12T03:01:12.252Z,11.70
2022-10-12T03:03:41.761Z,11.71
2022-10-12T03:06:10.101Z,11.70
2022-10-12T03:08:38.182Z,11.68
2022-10-12T03:11:08.656Z,11.70
2022-10-12T03:13:36.804Z,11.72
2022-10-12T03:16:05.545Z,11.74
2022-10-12T03:18:34.516Z,11.70
2022-10-12T03:21:04.219Z,11.70
2022-10-12T03:23:32.605Z,11.70
2022-10-12T03:26:00.646Z,11.67
2022-10-12T03:28:28.854Z,11.63
2022-10-12T03:30:57.267Z,11.59
2022-10-12T03:33:25.393Z,11.58
2022-10-12T03:35:53.479Z,11.58
2022-10-12T03:38:22.858Z,11.55
2022-10-12T03:40:50.879Z,11.55
2022-10-12T03:43:18.913Z,11.54
2022-10-12T03:45:47.331Z,11.54
2022-10-12T03:48:15.397Z,11.53
2022-10-12T03:50:43.428Z,11.53
2022-10-12T03:53:11.447Z,11.52
2022-10-12T03:55:40.827Z,11.47
2022-10-12T03:58:08.869Z,11.47
2022-10-12T04:00:37.225Z,11.49
2022-10-12T04:03:05.522Z,11.48
2022-10-12T04:05:33.943Z,11.49
2022-10-12T04:08:02.122Z,11.48
2022-10-12T04:10:30.139Z,11.45
2022-10-12T04:12:59.623Z,11.44
2022-10-12T04:15:27.606Z,11.43
2022-10-12T04:17:55.621Z,11.42
2022-10-12T04:20:23.668Z,11.41
2022-10-12T04:22:51.668Z,11.39
2022-10-12T04:25:19.727Z,11.37
2022-10-12T04:27:47.745Z,11.38
2022-10-12T04:30:17.238Z,11.38
2022-10-12T04:32:45.230Z,11.36
2022-10-12T04:35:13.258Z,11.36
2022-10-12T04:37:41.563Z,11.36
2022-10-12T04:40:10.568Z,11.38
2022-10-12T04:42:38.605Z,11.36
2022-10-12T04:45:07.566Z,11.33
2022-10-12T04:47:37.293Z,11.33
2022-10-12T04:50:06.301Z,11.34
2022-10-12T04:52:34.323Z,11.34
2022-10-12T04:55:02.367Z,11.34
2022-10-12T04:57:30.594Z,11.37
2022-10-12T04:59:58.658Z,11.40
2022-10-12T05:02:26.714Z,11.30
2022-10-12T05:04:56.170Z,11.38
2022-10-12T05:07:24.164Z,11.40
2022-10-12T05:09:52.309Z,11.40
2022-10-12T05:12:20.330Z,11.39
2022-10-12T05:14:48.321Z,11.40
2022-10-12T05:17:16.351Z,11.39
2022-10-12T05:19:44.400Z,11.37
2022-10-12T05:22:13.825Z,11.34
2022-10-12T05:24:41.823Z,11.34
2022-10-12T05:27:10.058Z,11.34
2022-10-12T05:29:38.047Z,11.31
2022-10-12T05:32:06.322Z,11.32
2022-10-12T05:34:34.354Z,11.31
2022-10-12T05:37:02.711Z,11.32
2022-10-12T05:39:32.144Z,11.32
2022-10-12T05:42:00.209Z,11.32
2022-10-12T05:44:28.245Z,11.34
2022-10-12T05:46:56.318Z,11.36
2022-10-12T05:49:24.346Z,11.38
2022-10-12T05:51:52.433Z,11.42
2022-10-12T05:54:20.549Z,11.41
2022-10-12T05:56:49.936Z,11.44
2022-10-12T05:59:18.005Z,11.46
2022-10-12T06:01:46.094Z,11.49
2022-10-12T06:04:14.122Z,11.53
2022-10-12T06:06:42.186Z,11.55
2022-10-12T06:09:10.266Z,11.57
2022-10-12T06:11:38.336Z,11.52
2022-10-12T06:14:07.777Z,11.47
2022-10-12T06:16:35.782Z,11.55
2022-10-12T06:19:03.798Z,11.64
2022-10-12T06:21:34.289Z,11.57
2022-10-12T06:24:02.809Z,11.63
2022-10-12T06:26:31.091Z,11.62
2022-10-12T06:29:00.685Z,11.66
2022-10-12T06:31:30.601Z,11.69
2022-10-12T06:33:58.653Z,11.75
2022-10-12T06:36:26.841Z,11.76
2022-10-12T06:38:55.259Z,11.79
2022-10-12T06:41:23.473Z,11.85
2022-10-12T06:43:51.490Z,11.88
2022-10-12T06:46:19.541Z,11.90
2022-10-12T06:48:48.962Z,11.96
2022-10-12T06:51:16.978Z,11.98
2022-10-12T06:53:45.046Z,12.00
2022-10-12T06:56:13.754Z,11.99
2022-10-12T06:58:42.117Z,12.04
2022-10-12T07:01:11.123Z,12.06
2022-10-12T07:03:39.419Z,12.07
2022-10-12T07:06:11.449Z,12.15
2022-10-12T07:08:41.001Z,12.17
2022-10-12T07:11:10.724Z,12.23
2022-10-12T07:13:39.310Z,12.27
2022-10-12T07:16:07.823Z,12.59
2022-10-12T07:18:35.877Z,13.24
2022-10-12T07:21:04.286Z,13.93
2022-10-12T07:23:34.833Z,14.51
2022-10-12T07:26:03.070Z,14.98
2022-10-12T07:28:31.163Z,15.43
2022-10-12T07:31:03.158Z,15.45
2022-10-12T07:33:35.147Z,15.27
2022-10-12T07:36:14.020Z,15.06
2022-10-12T07:38:45.814Z,14.97
2022-10-12T07:41:15.259Z,15.03
2022-10-12T07:43:43.482Z,15.14
2022-10-12T07:46:12.093Z,15.25
2022-10-12T07:48:44.551Z,15.31
2022-10-12T07:51:17.168Z,15.59
2022-10-12T07:53:46.733Z,15.87
2022-10-12T07:56:18.336Z,16.04
2022-10-12T07:58:50.123Z,15.96
2022-10-12T08:01:19.747Z,16.02
2022-10-12T08:03:48.229Z,16.08
2022-10-12T08:06:17.859Z,16.12
2022-10-12T08:08:47.381Z,16.04
2022-10-12T08:11:16.120Z,16.13
2022-10-12T08:13:44.642Z,16.26
2022-10-12T08:16:14.954Z,16.49
2022-10-12T08:18:43.388Z,16.64
2022-10-12T08:21:14.120Z,16.73
2022-10-12T08:23:44.497Z,16.91
2022-10-12T08:26:14.910Z,16.96
2022-10-12T08:28:43.641Z,17.07
2022-10-12T08:31:14.218Z,17.28
2022-10-12T08:33:42.318Z,17.56
2022-10-12T08:36:11.966Z,17.84
2022-10-12T08:38:40.112Z,18.08
2022-10-12T08:41:27.562Z,18.29
2022-10-12T08:44:16.018Z,18.67
2022-10-12T08:46:44.054Z,18.86
2022-10-12T08:49:17.414Z,19.24
2022-10-12T08:51:50.203Z,19.61
2022-10-12T08:54:20.220Z,19.67
2022-10-12T08:56:49.920Z,19.29
2022-10-12T08:59:19.887Z,19.17
2022-10-12T09:02:00.374Z,19.21
2022-10-12T09:04:41.626Z,19.36
2022-10-12T09:07:14.095Z,19.47
2022-10-12T09:09:54.650Z,19.63
2022-10-12T09:12:36.571Z,19.98
2022-10-12T09:15:16.455Z,20.07
2022-10-12T09:17:48.757Z,20.47
2022-10-12T09:20:22.673Z,20.68
2022-10-12T09:22:52.775Z,21.03
2022-10-12T09:25:24.907Z,21.62
2022-10-12T09:27:55.301Z,22.46
2022-10-12T09:30:23.519Z,22.99
2022-10-12T09:33:10.322Z,23.40
2022-10-12T09:35:38.634Z,24.03
2022-10-12T09:38:07.818Z,24.13
2022-10-12T09:40:35.875Z,24.21
2022-10-12T09:43:05.407Z,24.68
2022-10-12T09:45:36.198Z,25.13
2022-10-12T09:48:15.922Z,25.63
2022-10-12T09:50:48.817Z,25.78
2022-10-12T09:53:32.890Z,25.96
2022-10-12T09:56:06.738Z,26.05
2022-10-12T09:58:42.907Z,26.05
2022-10-12T10:01:19.578Z,26.46
2022-10-12T10:03:49.907Z,26.65
2022-10-12T10:06:24.645Z,26.50
2022-10-12T10:08:52.786Z,26.47
2022-10-12T10:11:24.557Z,26.68
2022-10-12T10:13:55.934Z,26.64
2022-10-12T10:16:27.122Z,26.53
2022-10-12T10:19:00.478Z,26.31
2022-10-12T10:21:32.406Z,26.36
2022-10-12T10:24:02.469Z,26.48
2022-10-12T10:26:51.423Z,26.52
2022-10-12T10:29:32.101Z,27.02
2022-10-12T10:32:23.967Z,27.17
2022-10-12T10:35:02.984Z,27.07
2022-10-12T10:37:32.213Z,26.52
2022-10-12T10:40:00.902Z,26.49
2022-10-12T10:42:32.636Z,26.52
2022-10-12T10:45:07.067Z,26.45
2022-10-12T10:47:43.283Z,26.51
2022-10-12T10:50:25.759Z,26.49
2022-10-12T10:52:57.717Z,26.15
2022-10-12T10:55:36.389Z,26.39
2022-10-12T10:58:07.108Z,26.73
2022-10-12T11:00:44.062Z,27.11
2022-10-12T11:03:15.970Z,27.69
2022-10-12T11:05:47.789Z,28.10
2022-10-12T11:08:20.710Z,28.78
2022-10-12T11:10:54.517Z,29.05
2022-10-12T11:13:26.621Z,29.03
2022-10-12T11:15:59.437Z,29.08
2022-10-12T11:18:35.772Z,29.34
2022-10-12T11:21:08.442Z,29.54
2022-10-12T11:23:45.137Z,29.34
2022-10-12T11:26:21.683Z,29.24
2022-10-12T11:28:50.443Z,29.43
2022-10-12T11:31:26.675Z,29.86
2022-10-12T11:33:56.222Z,30.11
2022-10-12T11:36:27.439Z,30.16
2022-10-12T11:39:03.203Z,29.82
2022-10-12T11:42:03.067Z,29.76
2022-10-12T11:44:41.036Z,30.18
2022-10-12T11:47:17.267Z,30.20
2022-10-12T11:49:53.543Z,29.77
2022-10-12T11:52:27.763Z,29.61
2022-10-12T11:55:01.995Z,29.43
2022-10-12T11:57:35.054Z,29.46
2022-10-12T12:00:06.591Z,29.77
2022-10-12T12:02:44.126Z,30.22
2022-10-12T12:05:16.509Z,30.60
2022-10-12T12:07:50.254Z,30.83
2022-10-12T12:10:51.873Z,30.79
2022-10-12T12:13:23.787Z,30.62
2022-10-12T12:16:32.782Z,30.40
2022-10-12T12:19:39.297Z,29.89
2022-10-12T12:22:24.945Z,29.23
2022-10-12T12:25:05.986Z,29.03
2022-10-12T12:27:38.138Z,28.98
2022-10-12T12:30:24.878Z,28.85
2022-10-12T12:32:55.371Z,28.40
2022-10-12T12:35:28.844Z,27.64
2022-10-12T12:38:19.802Z,27.17
2022-10-12T12:41:06.507Z,26.75
2022-10-12T12:44:02.675Z,26.38
2022-10-12T12:47:32.514Z,26.06
2022-10-12T12:49:57.321Z,25.94
2022-10-12T12:52:29.810Z,26.17
2022-10-12T12:55:39.373Z,26.21
2022-10-12T12:58:44.603Z,26.04
2022-10-12T13:01:31.898Z,25.91
2022-10-12T13:04:24.145Z,25.78
2022-10-12T13:07:21.198Z,25.56
2022-10-12T13:10:12.877Z,25.67
2022-10-12T13:13:01.062Z,25.65
2022-10-12T13:15:45.891Z,25.62
2022-10-12T13:18:49.420Z,25.66
2022-10-12T13:21:21.362Z,25.37
2022-10-12T13:23:52.347Z,25.35
2022-10-12T13:26:26.327Z,25.43
2022-10-12T13:28:55.995Z,25.56
2022-10-12T13:31:28.999Z,25.64
2022-10-12T13:34:04.768Z,25.73
2022-10-12T13:36:36.222Z,26.07
2022-10-12T13:39:15.230Z,26.31
2022-10-12T13:41:46.002Z,26.68
2022-10-12T13:44:23.103Z,26.92
2022-10-12T13:46:54.927Z,27.20
2022-10-12T13:49:25.368Z,27.51
2022-10-12T13:51:55.058Z,27.95
2022-10-12T13:54:25.970Z,28.13
2022-10-12T13:56:58.632Z,28.14
2022-10-12T13:59:29.634Z,28.09
2022-10-12T14:02:00.886Z,28.06
2022-10-12T14:04:30.694Z,28.20
2022-10-12T14:07:02.683Z,28.38
2022-10-12T14:09:41.582Z,28.23
2022-10-12T14:12:12.647Z,27.73
2022-10-12T14:14:44.327Z,27.32
2022-10-12T14:17:15.928Z,27.05
2022-10-12T14:19:46.809Z,26.75
2022-10-12T14:22:21.646Z,26.61
2022-10-12T14:24:50.733Z,26.23
2022-10-12T14:27:26.098Z,25.77
2022-10-12T14:29:58.255Z,25.49
2022-10-12T14:32:42.454Z,25.44
2022-10-12T14:35:14.794Z,25.03
2022-10-12T14:37:43.089Z,24.64
2022-10-12T14:40:35.246Z,24.53
2022-10-12T14:43:09.502Z,24.46
2022-10-12T14:45:37.625Z,24.41
2022-10-12T14:48:10.931Z,24.41
2022-10-12T14:50:38.974Z,24.27
2022-10-12T14:53:12.327Z,24.14
2022-10-12T14:55:42.523Z,24.13
2022-10-12T14:58:16.328Z,24.04
2022-10-12T15:00:45.136Z,23.99
2022-10-12T15:03:13.215Z,23.94
2022-10-12T15:05:41.234Z,23.80
2022-10-12T15:08:09.405Z,23.69
2022-10-12T15:10:38.709Z,23.47
2022-10-12T15:13:06.743Z,23.22
2022-10-12T15:15:40.741Z,22.94
2022-10-12T15:18:09.131Z,22.79
2022-10-12T15:20:38.357Z,22.66
2022-10-12T15:23:06.735Z,22.55
2022-10-12T15:25:42.794Z,22.46
2022-10-12T15:28:10.838Z,22.38
2022-10-12T15:30:58.070Z,22.26
2022-10-12T15:33:28.338Z,22.26
2022-10-12T15:35:56.536Z,22.09
2022-10-12T15:38:24.505Z,21.93
2022-10-12T15:40:53.463Z,21.84
2022-10-12T15:43:21.577Z,21.73
2022-10-12T15:45:51.546Z,21.60
2022-10-12T15:48:19.593Z,21.54
2022-10-12T15:50:49.146Z,21.49
2022-10-12T15:53:18.014Z,21.40
2022-10-12T15:55:46.034Z,21.30
2022-10-12T15:58:14.073Z,21.22
2022-10-12T16:00:42.158Z,21.14
2022-10-12T16:03:16.427Z,21.03
2022-10-12T16:05:46.234Z,20.88
2022-10-12T16:08:15.448Z,20.83
2022-10-12T16:10:43.544Z,20.72
2022-10-12T16:13:13.842Z,20.68
2022-10-12T16:15:42.842Z,20.63
2022-10-12T16:18:15.472Z,20.60
2022-10-12T16:20:46.687Z,20.50
2022-10-12T16:23:21.432Z,20.45
2022-10-12T16:25:49.412Z,20.39
2022-10-12T16:28:18.754Z,20.33
2022-10-12T16:30:46.814Z,20.25
2022-10-12T16:33:16.413Z,20.18
2022-10-12T16:35:44.995Z,20.10
2022-10-12T16:38:14.713Z,20.02
2022-10-12T16:40:43.329Z,19.94
2022-10-12T16:43:11.993Z,19.87
2022-10-12T16:45:40.047Z,19.80
2022-10-12T16:48:08.192Z,19.73
2022-10-12T16:50:40.859Z,19.54
2022-10-12T16:53:09.616Z,19.43
2022-10-12T16:55:40.765Z,19.37
2022-10-12T16:58:08.766Z,19.30
2022-10-12T17:00:37.860Z,19.22
2022-10-12T17:03:06.080Z,19.21
2022-10-12T17:05:34.084Z,19.14
2022-10-12T17:08:03.459Z,19.06
2022-10-12T17:10:31.566Z,18.98
2022-10-12T17:12:59.585Z,18.91
2022-10-12T17:15:27.594Z,18.81
2022-10-12T17:17:56.334Z,18.74
2022-10-12T17:20:24.353Z,18.70
2022-10-12T17:22:52.374Z,18.65
2022-10-12T17:25:21.745Z,18.57
2022-10-12T17:27:49.744Z,18.52
2022-10-12T17:30:18.022Z,18.48
2022-10-12T17:32:46.007Z,18.42
2022-10-12T17:35:14.031Z,18.36
2022-10-12T17:37:42.042Z,18.29
2022-10-12T17:40:11.748Z,18.21
2022-10-12T17:42:41.157Z,18.13
2022-10-12T17:45:09.841Z,18.05
2022-10-12T17:47:39.250Z,18.02
2022-10-12T17:50:08.101Z,17.98
2022-10-12T17:52:41.700Z,17.95
2022-10-12T17:55:29.669Z,17.84
2022-10-12T17:58:01.031Z,17.80
2022-10-12T18:00:29.610Z,17.79
2022-10-12T18:02:58.310Z,17.76
2022-10-12T18:05:26.561Z,17.73
2022-10-12T18:07:54.577Z,17.73
2022-10-12T18:10:24.807Z,17.72
2022-10-12T18:12:55.758Z,17.69
2022-10-12T18:15:25.129Z,17.69
2022-10-12T18:17:54.592Z,17.68
2022-10-12T18:20:22.662Z,17.68
2022-10-12T18:22:50.646Z,17.68
2022-10-12T18:25:18.885Z,17.69
2022-10-12T18:27:50.178Z,17.69
2022-10-12T18:30:18.382Z,17.70
2022-10-12T18:32:47.769Z,17.69
2022-10-12T18:35:15.939Z,17.70
2022-10-12T18:37:44.789Z,17.69
2022-10-12T18:40:13.393Z,17.75
2022-10-12T18:42:41.401Z,17.78
2022-10-12T18:45:10.129Z,17.73
2022-10-12T18:47:38.531Z,17.75
2022-10-12T18:50:09.266Z,17.68
2022-10-12T18:52:37.305Z,17.70
2022-10-12T18:55:05.925Z,17.69
2022-10-12T18:57:37.721Z,17.67
2022-10-12T19:00:10.243Z,17.67
2022-10-12T19:02:38.265Z,17.65
2022-10-12T19:05:08.370Z,17.63
2022-10-12T19:07:36.797Z,17.59
2022-10-12T19:10:07.055Z,17.55
2022-10-12T19:12:35.352Z,17.50
2022-10-12T19:15:03.452Z,17.47
2022-10-12T19:17:32.131Z,17.41
2022-10-12T19:20:00.157Z,17.36
2022-10-12T19:22:29.629Z,17.33
2022-10-12T19:24:57.578Z,17.33
2022-10-12T19:27:25.589Z,17.28
2022-10-12T19:29:53.568Z,17.28
2022-10-12T19:32:21.634Z,17.26
2022-10-12T19:34:51.901Z,17.20
2022-10-12T19:37:19.924Z,17.13
2022-10-12T19:39:49.342Z,17.10
2022-10-12T19:42:17.661Z,17.08
2022-10-12T19:44:45.818Z,17.06
2022-10-12T19:47:13.878Z,17.05
2022-10-12T19:49:45.160Z,17.03
2022-10-12T19:52:13.518Z,17.03
2022-10-12T19:54:41.784Z,17.03
2022-10-12T19:57:11.208Z,17.04
2022-10-12T19:59:39.190Z,17.04
2022-10-12T20:02:09.255Z,17.02
2022-10-12T20:04:37.286Z,17.03
2022-10-12T20:07:05.293Z,17.03
2022-10-12T20:09:33.334Z,17.03
2022-10-12T20:12:01.332Z,17.04
2022-10-12T20:14:30.837Z,17.06
2022-10-12T20:16:58.827Z,17.07
2022-10-12T20:19:26.915Z,17.08
2022-10-12T20:21:54.897Z,17.20
2022-10-12T20:24:22.970Z,17.24
2022-10-12T20:26:51.059Z,17.25
2022-10-12T20:29:19.032Z,17.16
2022-10-12T20:31:48.402Z,17.17
2022-10-12T20:34:16.432Z,17.22
2022-10-12T20:36:44.429Z,17.13
2022-10-12T20:39:12.410Z,17.10
2022-10-12T20:41:41.064Z,17.08
2022-10-12T20:44:10.922Z,17.10
2022-10-12T20:46:38.969Z,17.17
2022-10-12T20:49:08.333Z,17.23
2022-10-12T20:51:39.994Z,17.21
2022-10-12T20:54:09.147Z,17.25
2022-10-12T20:56:41.165Z,17.20
2022-10-12T21:20:14.378Z,16.70
2022-10-12T21:22:45.837Z,16.60
2022-10-12T21:25:13.861Z,16.51
2022-10-12T21:27:41.958Z,16.42
2022-10-12T21:30:10.604Z,16.31
2022-10-12T21:32:38.623Z,16.18
2022-10-12T21:35:07.254Z,16.10
2022-10-12T21:37:36.606Z,16.01
2022-10-12T21:40:05.183Z,15.91
2022-10-12T21:42:33.164Z,15.84
2022-10-12T21:45:01.214Z,15.80
2022-10-12T21:47:29.213Z,15.74
2022-10-12T21:49:57.221Z,15.66
2022-10-12T21:52:25.262Z,15.63
2022-10-12T21:54:54.651Z,15.58
2022-10-12T21:57:22.687Z,15.48
2022-10-12T21:59:50.768Z,15.42
2022-10-12T22:02:19.013Z,15.34
2022-10-12T22:04:47.317Z,15.33
2022-10-12T22:07:15.354Z,15.28
2022-10-12T22:09:45.218Z,15.25
2022-10-12T22:12:15.068Z,15.21
2022-10-12T22:14:43.285Z,15.16
2022-10-12T22:17:12.356Z,15.13
2022-10-12T22:19:45.116Z,15.12
2022-10-12T22:22:13.110Z,15.07
2022-10-12T22:24:41.119Z,15.08
2022-10-12T22:27:09.177Z,15.03
2022-10-12T22:29:38.566Z,15.01
2022-10-12T22:32:06.820Z,15.02
2022-10-12T22:34:34.810Z,15.03
2022-10-12T22:37:02.842Z,15.07
2022-10-12T22:39:30.874Z,15.08
2022-10-12T22:41:58.860Z,15.11
2022-10-12T22:44:26.971Z,15.14
2022-10-12T22:46:56.690Z,15.17
2022-10-12T22:49:24.707Z,15.21
2022-10-12T22:51:52.702Z,15.27
2022-10-12T22:54:20.762Z,15.32
2022-10-12T22:56:51.234Z,15.40
2022-10-12T22:59:19.263Z,15.42
2022-10-12T23:01:47.281Z,15.44
2022-10-12T23:04:16.771Z,15.44
2022-10-12T23:06:44.781Z,15.43
2022-10-12T23:09:12.886Z,15.42
2022-10-12T23:11:40.896Z,15.45
2022-10-12T23:14:11.982Z,15.47
2022-10-12T23:16:40.022Z,15.48
2022-10-12T23:19:08.085Z,15.53
2022-10-12T23:21:37.471Z,15.57
2022-10-12T23:24:06.348Z,15.60
2022-10-12T23:26:34.669Z,15.62
2022-10-12T23:29:03.299Z,15.67
2022-10-12T23:31:32.082Z,15.68
2022-10-12T23:34:02.908Z,15.72
2022-10-12T23:36:31.670Z,15.70
2022-10-12T23:39:03.014Z,15.71
2022-10-12T23:41:31.069Z,15.69
2022-10-12T23:43:59.124Z,15.72
2022-10-12T23:46:27.276Z,15.73
2022-10-12T23:48:57.670Z,15.74
2022-10-12T23:51:25.926Z,15.71
2022-10-12T23:53:54.034Z,15.71
2022-10-12T23:56:23.398Z,15.74
2022-10-12T23:58:51.421Z,15.75
